ACT        NSW        VIC        QLD        SA        WA        TAS        NT        INFO        CALC            by VK5ZD

Past Date/Time: (dd/mm/yyyy hh:mm or blank for current data)    

  Atmospheric Gas Attenuation - ITU Rec 676-11   --------------- dB/100km ---------------
WA Stations Date Time Temp RH % AH g/m3 Dew Point Wind Direction Speed kph Gust kph Barometer mB Rainfall Since 9am 24GHz 47GHz 76GHz 122GHz 134GHz 241GHz
Albany 03/05 09:00 16 88 11.99 14.1 13 1013.1 3 26.7 30.9 52.7 139.0 141.8 490.3
Albany Airport 03/05 15:10 16.7 70 9.95 11.2 11 13 1026.3 0.2 22.3 27.7 44.3 116.4 113.5 391.7
Badgingarra 03/05 15:10 19.8 46 7.86 8.1 20 24 1013.1 0 17.7 23.1 34.2 89.6 82.3 282.7
Barimunya 03/05 15:10 26.1 18 4.41 0 15 19 1013.1 0 10.3 17.2 21.0 54.4 40.8 137.5
Barrow Island 03/05 15:10 27.5 57 15.08 18.2 33 35 1012.3 0 32.5 32.0 57.7 152.3 161.8 561.7
Bedout Island 03/05 15:10 29.4 40 11.74 14.4 19 22 1011.9 0 25.4 26.2 43.6 114.8 116.2 402.8
Beverley 03/05 09:00 10.8 97 9.59 10.4 0 1013.1 0 21.9 28.5 45.6 119.8 116.2 400.2
Bickley 03/05 15:10 16.8 58 8.29 8.5 13 20 1013.1 0 18.8 24.6 37.1 97.4 90.8 312.2
Boolgeeda 03/05 15:10 29.4 25 7.34 7.6 6 6 1011.6 0 16.3 20.1 28.8 75.3 67.6 232.3
Bridgetown 03/05 15:10 18.5 63 9.97 11.3 2 4 1025.8 0 22.2 27.2 43.4 113.9 111.2 383.7
Broome 03/05 15:10 34.3 28 10.68 13.2 11 13 1010.6 0 22.9 23.3 37.5 98.6 97.7 338.3
Bunbury 03/05 15:10 19.5 58 9.73 11.2 11 13 1025.4 0 21.7 26.5 41.9 109.9 106.6 367.9
Busselton Airport 03/05 15:10 19.1 59 9.67 10.9 11 13 1025.5 0 21.6 26.5 41.9 109.9 106.4 367.1
Cape Leeuwin 03/05 15:10 18.2 64 9.95 11.3 15 19 1026.6 0 22.2 27.3 43.5 114.2 111.4 384.4
Cape Naturaliste 03/05 15:10 17.9 70 10.69 12.4 9 11 1025.8 0 23.8 28.5 46.6 122.6 121.7 420.2
Carnarvon 03/05 15:10 25.5 44 10.42 12.4 20 24 1015 0 22.8 25.4 40.9 107.7 106.2 367.2
Christmas Creek 03/05 15:10 27.3 17 4.45 0.1 19 26 1014.6 0 10.4 17.1 20.9 54.0 40.6 137.1
Christmas Island 03/05 15:10 28.1 74 20.24 23.2 24 30 1009.1 0 43.3 40.7 79.5 210.5 233.6 811.9
Cocos Island 03/05 15:10 30.1 78 23.79 25.8 17 20 1010.4 0 50.5 46.5 94.3 249.9 282.4 981.7
Collie East 03/05 15:10 18.3 57 8.91 9.6 9 13 1013.1 0 20.0 25.1 38.8 101.8 96.8 333.3
Coondewanna 03/05 15:10 26.3 19 4.7 0.9 7 13 1013.1 0 10.9 17.6 21.8 56.5 43.5 147.0
Cunderdin Airport 03/05 15:10 18 56 8.6 9.1 13 15 1024.8 0 19.4 25.1 38.3 100.2 94.2 324.0
Curtin 03/05 15:10 35 28 11.07 13.8 11 13 1009.4 0 23.7 23.6 38.4 101.0 100.9 349.8
Dalwallinu 03/05 15:10 19.9 39 6.7 5.5 22 26 1022.9 0 15.3 21.8 30.5 79.5 69.3 237.2
Doongan 03/05 09:00 29.5 55 16.24 19.7 2 1013.3 0 34.7 33.2 61.0 161.1 173.2 601.6
Dwellingup 03/05 15:10 19 51 8.31 8.6 13 19 1025.2 0 18.7 24.4 36.7 96.1 89.4 307.6
Eliwana Airport 03/05 15:10 30.9 25 7.96 8.7 15 19 1013.1 0 17.5 20.7 30.2 79.2 72.8 250.7
Esperance 03/05 15:10 16.7 73 10.37 11.8 19 26 1024.1 0 23.2 28.3 45.9 120.7 119.0 410.9
Esperance Airport 03/05 15:10 16 72 9.81 11 30 33 1024.3 0 22.0 27.6 44.0 115.7 112.5 388.0
Eucla 03/05 15:10 17.4 54 8 8 22 26 1018.7 0.8 18.1 24.2 36.0 94.3 86.9 298.6
Eyre 03/05 09:00 14 96 11.58 13.3 6 1021 10 26.0 31.2 52.7 138.8 140.4 485.2
Fitzroy Crossing 03/05 15:10 35.2 26 10.39 12.8 1010 0 22.3 22.7 36.1 95.0 93.5 323.8
Forrest 03/05 15:10 19 50 8.15 8.4 32 37 1019.4 0 18.4 24.0 35.9 94.0 87.0 299.3
Fortescue Dave Forrest 03/05 15:10 27.6 18 4.79 1.2 24 28 1013.9 0 11.1 17.5 21.8 56.4 43.7 147.9
Garden Island 03/05 15:10 17.8 72 10.93 12.7 13 15 1025.1 0 24.3 28.9 47.7 125.3 125.0 432.0
Geraldton Airport 03/05 15:10 23.9 27 5.84 3.8 28 32 1020.5 0 13.4 19.7 26.2 68.1 56.7 193.3
Gerangamete (Cfa) 03/05 17:00 17 57 8.25 8.6 24 30 1013.1 14.6 18.7 24.4 36.9 96.7 90.0 309.6
Giles* 03/05 16:40 21.3 21 3.91 -1.9 19 26 1017.4 0 9.4 17.6 20.8 53.8 38.3 128.3
Gingin Airport 03/05 15:10 19.3 51 8.46 8.9 20 24 1024.2 0 19.0 24.5 37.1 97.2 90.8 312.6
Golden Grove 03/05 15:10 20.5 31 5.52 2.8 15 17 1013.1 0 12.8 19.7 26.0 67.6 55.2 187.9
Gooseberry Hill 03/05 15:10 18.6 53 8.43 8.8 13 20 1013.1 0 19.0 24.3 36.8 96.6 90.4 311.2
Gudai-Darri Mine 03/05 15:10 27.5 17 4.5 0.4 24 28 1013.1 0 10.5 17.1 20.9 54.2 40.9 138.3
Halls Creek 03/05 16:40 33.4 24 8.73 10.1 4 6 1010.5 0 19.0 21.0 31.6 83.0 78.2 270.0
Hopetoun North 03/05 15:10 16.8 75 10.72 12.3 13 17 1024.8 0.2 23.9 28.9 47.4 124.6 123.7 427.3
Hyden 03/05 09:00 12.3 95 10.32 11.6 4 1013.1 0 23.4 29.3 47.8 125.9 124.2 428.7
Iron Bridge Mine 03/05 15:10 31.6 15 4.96 2.4 9 13 1013.1 0 11.3 16.9 21.2 55.1 43.2 146.6
Jacup 03/05 15:10 15.6 70 9.31 10.2 11 15 1025.4 0 21.0 27.0 42.3 110.9 106.5 366.8
Jandakot 03/05 15:10 20.3 53 9.32 10.4 9 11 1024.5 0 20.8 25.6 39.9 104.6 100.3 345.9
Jarrahwood 03/05 09:00 13.5 94 11 12.6 7 1013.1 0.4 24.8 30.0 50.1 131.8 132.0 455.9
Kalbarri 03/05 09:00 17.2 33 4.83 1 28 1022.2 0 11.5 19.8 25.0 64.8 50.3 170.1
Kalgoorlie-Boulder 03/05 15:10 17.9 45 6.87 5.8 13 15 1023.1 0 15.7 22.5 31.8 83.1 73.1 250.1
Kalumburu 03/05 16:40 31.2 58 18.77 22.2 20 22 1009.7 0 39.9 36.7 70.0 185.2 203.3 706.8
Karijini North 03/05 15:10 29.2 14 4.07 -1 13 15 1014.2 0 9.6 16.4 19.4 50.0 36.2 121.8
Karratha 03/05 15:10 29.8 30 9 10.4 26 28 1012.8 0 19.7 22.3 34.0 89.2 84.8 292.6
Katanning Rs 03/05 15:10 17.1 61 8.88 9.7 15 19 1025.6 0.2 20.0 25.8 39.8 104.3 98.9 340.5
Koolan Island / Koolan Central 03/05 15:10 30.6 59 18.48 21.8 13 17 1013.1 0 39.3 36.6 69.5 183.8 201.3 699.8
Kununurra Airport 03/05 16:40 34.6 37 14.33 18.2 11 13 1009.2 0 30.4 28.3 49.8 131.6 138.4 480.8
Lake Grace 03/05 15:10 17 61 8.83 9.4 15 17 1025.3 0.2 19.9 25.8 39.6 103.9 98.3 338.6
Lancelin (Defence) 03/05 15:10 19.5 65 10.91 12.7 24 30 1023.2 0 24.2 28.3 46.5 122.2 121.8 421.1
Laverton 03/05 15:10 17.5 49 7.3 6.7 13 17 1022 0 16.7 23.2 33.5 87.6 78.5 269.1
Learmonth 03/05 15:10 29 50 14.36 17.8 22 26 1013.3 0 30.8 30.3 53.8 141.9 149.4 518.7
Legendre Island 03/05 15:10 28.9 42 12 15 24 26 1013 0 25.9 26.7 44.8 118.1 120.2 416.5
Leinster 03/05 15:10 19.6 32 5.4 2.5 15 20 1020.5 0 12.6 20.0 26.1 67.8 54.9 186.6
Leonora Airport 03/05 15:10 19.4 35 5.84 3.6 15 19 1021.5 0 13.5 20.7 27.7 72.0 60.0 204.2
Lombadina 03/05 15:10 32.4 36 12.42 15.8 9 13 1013.1 0 26.6 26.3 44.4 117.1 119.9 415.9
Mandora 03/05 15:10 34.4 17 6.52 5.8 11 17 1011.6 0 14.4 18.2 24.8 64.7 55.9 191.7
Mandurah 03/05 15:10 19.9 48 8.25 8.8 9 11 1024.7 0 18.5 24.1 36.1 94.4 87.7 301.5
Manjimup 03/05 15:10 17.6 70 10.5 12.1 9 13 1026.1 0.2 23.4 28.3 46.1 121.0 119.6 413.0
Marble Bar 03/05 15:10 31.1 15 4.83 1.4 17 20 1013.5 0 11.1 16.9 21.0 54.4 42.3 143.3
Mardie 03/05 15:10 32.4 27 9.31 11 19 24 1012.3 0 20.2 22.0 33.9 89.0 85.3 294.9
Meekatharra 03/05 15:10 22.4 22 4.37 -0.3 22 26 1019.2 0 10.4 18.1 22.0 56.9 42.4 143.0
Millendon (Swan Valley) 03/05 15:10 19.6 51 8.61 9.4 7 9 1024.5 0 19.3 24.7 37.5 98.3 92.4 318.0
Morawa Airport 03/05 15:10 21.7 32 6.1 4.3 17 22 1022 0 14.0 20.5 27.8 72.3 61.1 208.6
Mount Keith 03/05 15:10 19.9 30 5.15 1.8 19 20 1013.1 0 12.1 19.4 25.0 64.8 51.7 175.3
Mount Magnet Airport 03/05 15:10 20.5 30 5.34 2.3 22 24 1020.8 0 12.4 19.7 25.6 66.6 53.7 182.4
Mullewa 03/05 09:00 15 49 6.28 4.4 19 1013.1 0 14.6 22.0 30.4 79.5 68.0 232.2
Munglinup West 03/05 15:10 16.1 66 9.05 9.9 17 20 1024.7 0 20.4 26.4 40.9 107.4 102.3 352.3
Murchison 03/05 09:00 20 72 12.44 14.9 19 1021.6 0 27.4 30.6 52.4 138.1 141.6 490.3
Narrogin 03/05 09:00 13.9 90 10.79 12.3 7 1013.1 0.2 24.3 29.5 48.9 128.7 128.3 443.1
Newdegate 03/05 15:10 17.4 59 8.74 9.5 13 17 1024.8 0.2 19.7 25.5 39.1 102.4 96.7 332.7
Newman Airport 03/05 15:10 25.3 19 4.45 0 17 20 1015.9 0 10.5 17.5 21.4 55.4 41.7 140.5
Norseman Airport 03/05 15:10 17.6 56 8.4 8.7 20 24 1023.4 0 19.0 24.9 37.6 98.5 92.0 316.5
North Island 03/05 15:10 21.7 44 8.39 8.9 35 43 1020.6 0 18.8 23.7 35.6 93.3 87.1 299.7
Northam 03/05 09:00 10.7 89 8.74 8.9 9 1013.1 0 20.0 27.0 42.0 110.2 104.4 358.9
Onslow Airport 03/05 15:10 29.8 45 13.5 16.6 24 28 1013.5 0 29.0 28.7 49.9 131.7 137.1 475.8
Paraburdoo 03/05 15:10 30 19 5.76 3.9 6 7 1013.6 0 13.0 18.2 23.9 62.3 51.6 176.1
Paynes Find 03/05 09:00 12.2 65 7.01 5.9 6 1025.4 0 16.3 24.3 34.8 90.9 80.5 275.3
Pearce 03/05 15:10 19.4 51 8.51 9 30 32 1024 0 19.1 24.6 37.2 97.5 91.3 314.3
Perth 03/05 15:10 19.8 51 8.71 9.4 13 17 1024.7 0 19.5 24.8 37.8 99.1 93.4 321.6
Perth Airport 03/05 15:10 20.2 47 8.22 8.5 24 26 1024.6 0 18.5 24.0 35.8 93.8 87.0 299.1
Port Hedland 03/05 15:10 33.2 16 5.76 4 13 15 1012.2 0 12.9 17.5 23.0 59.9 49.6 169.4
Portable Btsa (Dfes) 03/05 15:00 27.2 16 4.16 -0.9 20 24 1013.1 0 9.8 16.8 20.0 51.8 37.9 127.5
Portable Btsb (Dfes) 03/05 15:00 18.3 49 7.66 7.6 11 13 1013.1 0 17.4 23.2 34.1 89.4 81.4 279.5
Portable Btsd (Dfes) 03/05 15:00 16.8 50 7.15 6.4 15 19 1013.1 0 16.4 22.8 32.9 86.0 76.8 263.1
Portable Btsf (Dfes) 03/05 15:00 20.9 26 4.73 0.7 26 32 1013.1 0 11.2 18.6 23.3 60.5 46.7 157.8
Portable Btsh (Dfes) 03/05 15:00 19.2 45 7.42 7.2 20 24 1013.1 0.2 16.8 22.6 32.9 86.1 77.7 266.5
Portable Btsj (Dfes) 03/05 15:00 21.2 45 8.34 8.8 11 15 1013.1 0 18.7 23.5 35.4 92.7 86.5 297.6
Portable Btsk (Dfes) 03/05 15:00 32.8 22 7.75 8.5 6 7 1013.1 0 17.0 20.0 28.9 75.7 69.0 237.7
Portable Btsl (Dfes) 03/05 15:00 19.7 42 7.13 6.5 24 30 1013.1 0 16.2 22.1 31.7 82.8 73.8 253.1
Portable Btsm (Dfes) 03/05 15:00 24.8 18 4.1 -0.6 7 9 1013.1 0 9.7 17.1 20.4 52.8 38.4 129.1
Portable Btsn (Dfes) 03/05 15:00 19.6 31 5.23 2 11 15 1013.1 0 12.2 19.5 25.3 65.8 52.7 178.9
Portable Btso (Dfes) 03/05 15:00 18.5 54 8.54 9 6 9 1013.1 0 19.2 24.5 37.3 97.8 91.9 316.4
Ravensthorpe 03/05 09:00 13.5 84 9.83 10.9 7 1025.4 1 22.2 28.5 45.6 119.8 116.6 402.0
Red Rocks Point 03/05 15:10 18.5 63 9.97 11.3 20 28 1019.7 1.4 22.3 26.9 43.1 113.3 110.6 381.8
Rocky Gully South 03/05 15:10 16.3 78 10.82 12.5 15 15 1013.1 0 24.2 28.8 47.5 125.1 124.8 431.0
Roebourne Airport 03/05 15:10 30.8 26 8.23 9.1 19 20 1013.2 0 18.0 21.0 31.1 81.6 75.7 260.8
Rottnest Island 03/05 15:10 17.4 63 9.34 10.3 7 9 1024.8 0 21.0 26.5 41.4 108.7 104.4 359.8
Salmon Gums Rs 03/05 15:10 16.3 60 8.32 8.7 13 17 1013.1 0.2 18.9 24.7 37.5 98.3 91.7 315.5
Shannon 03/05 15:10 16.7 76 10.8 12.5 11 17 1013.1 0.2 24.1 28.6 47.2 124.2 123.8 427.8
Shark Bay Airport 03/05 15:10 26.1 19 4.65 0.7 24 30 1016.2 0 10.8 17.6 21.8 56.5 43.2 146.1
Solomon Airport 03/05 15:10 28.6 22 6.18 5.2 11 13 1012.5 0 13.9 18.9 25.5 66.6 56.5 193.4
Southern Cross Airport 03/05 15:10 17.1 52 7.57 7.2 9 11 1024.3 0 17.2 23.8 34.8 90.9 82.3 282.5
Swanbourne 03/05 15:10 19.5 68 11.41 13.6 9 11 1013.1 0 25.3 28.7 48.0 126.5 127.5 441.1
Telfer 03/05 15:10 27.7 15 4.01 -1.3 26 33 1014.6 0 9.5 16.6 19.6 50.5 36.3 122.0
Thevenard Island 03/05 15:00 29.3 46 13.43 16.5 24 33 1013.3 0 28.9 28.8 50.0 131.8 137.1 475.7
Troughton Island 03/05 16:40 30.5 70 21.81 24.6 11 11 1010.3 0 46.3 42.5 84.3 223.4 250.0 869.1
Truscott 03/05 16:40 30.5 62 19.32 22.4 15 19 1009.6 0 41.1 37.9 73.0 193.2 213.0 740.5
Walpole North 03/05 15:10 16.6 79 11.16 12.9 7 7 1026.3 0.4 24.9 29.8 49.4 130.0 130.3 450.3
Wandering 03/05 15:10 18.1 51 7.88 7.8 15 19 1013.1 0 17.9 23.6 35.0 91.7 84.3 289.6
West Angelas 03/05 15:10 27.1 20 5.18 2.1 6 7 1013.5 0 11.9 18.0 23.0 59.8 47.7 162.0
West Musgrave Airport 03/05 15:10 20 25 4.32 -0.6 11 13 1013.1 0 10.3 18.3 22.3 57.7 42.9 144.5
Wiluna Airport 03/05 15:10 21 27 4.95 1.3 20 22 1019.9 0 11.6 19.1 24.2 62.8 49.2 166.6
Windy Harbour 03/05 09:00 16.6 73 10.31 11.8 9 1027.5 2 23.1 28.4 45.9 120.6 118.7 409.7
Witchcliffe West 03/05 15:10 18 79 12.13 14.3 15 19 1026.3 0 26.9 31.0 52.7 138.7 141.5 489.5
Wongan Hills 03/05 09:00 13.2 81 9.3 10.1 9 1026.2 0 21.1 27.7 43.6 114.3 109.8 378.0
Wyndham Airport 03/05 16:40 35.3 45 18.08 21.6 20 28 1009.1 0 38.0 33.8 63.6 168.2 183.6 638.8
Yampi Sound (Defence) 03/05 15:10 35.3 34 13.66 17.5 9 11 1013.2 0 28.9 27.3 47.2 124.5 129.8 450.7
York 03/05 09:00 10 99 9.3 9.8 0 1027.7 0 21.3 28.8 45.5 119.3 114.6 394.4

Last Refresh: 03-May-2026 16:44:10

Bureau of Meteorology